createdAt,value
2023-03-30T00:02:22.445Z,35.65
2023-03-30T00:04:49.763Z,35.62
2023-03-30T00:07:16.154Z,35.68
2023-03-30T00:09:43.497Z,35.74
2023-03-30T00:12:10.295Z,35.53
2023-03-30T00:14:37.542Z,35.58
2023-03-30T00:17:04.455Z,35.54
2023-03-30T00:19:31.153Z,35.59
2023-03-30T00:21:57.498Z,35.57
2023-03-30T00:24:23.824Z,35.28
2023-03-30T00:26:50.190Z,35.32
2023-03-30T00:29:16.954Z,35.43
2023-03-30T00:31:43.468Z,35.58
2023-03-30T00:34:10.196Z,35.44
2023-03-30T00:36:37.222Z,35.42
2023-03-30T00:39:06.465Z,35.47
2023-03-30T00:41:35.480Z,35.46
2023-03-30T00:44:09.389Z,35.56
2023-03-30T00:46:36.002Z,35.52
2023-03-30T00:49:06.299Z,35.50
2023-03-30T00:51:33.280Z,35.53
2023-03-30T00:54:01.008Z,35.55
2023-03-30T00:56:28.452Z,35.50
2023-03-30T00:58:55.140Z,35.49
2023-03-30T01:01:41.510Z,35.40
2023-03-30T01:04:08.279Z,35.43
2023-03-30T01:06:34.697Z,35.48
2023-03-30T01:09:01.017Z,35.45
2023-03-30T01:11:27.411Z,35.44
2023-03-30T01:13:58.383Z,35.51
2023-03-30T01:16:43.986Z,35.38
2023-03-30T01:19:16.133Z,35.36
2023-03-30T01:21:55.607Z,35.41
2023-03-30T01:24:21.937Z,35.44
2023-03-30T01:26:53.403Z,35.44
2023-03-30T01:29:39.341Z,35.57
2023-03-30T01:32:17.531Z,35.29
2023-03-30T01:34:48.155Z,35.23
2023-03-30T01:37:22.193Z,35.43
2023-03-30T01:39:54.186Z,35.40
2023-03-30T01:42:32.793Z,35.35
2023-03-30T01:45:05.324Z,35.34
2023-03-30T01:47:36.920Z,35.37
2023-03-30T01:50:09.112Z,35.37
2023-03-30T01:52:38.763Z,35.37
2023-03-30T01:55:08.681Z,35.38
2023-03-30T01:57:36.478Z,35.41
2023-03-30T02:00:27.664Z,35.56
2023-03-30T02:02:58.298Z,35.44
2023-03-30T02:05:25.137Z,35.36
2023-03-30T02:08:00.399Z,35.04
2023-03-30T02:10:28.112Z,35.01
2023-03-30T02:12:54.949Z,35.11
2023-03-30T02:15:21.276Z,34.99
2023-03-30T02:17:48.328Z,34.55
2023-03-30T02:20:17.671Z,34.41
2023-03-30T02:22:48.127Z,34.43
2023-03-30T02:25:14.505Z,34.40
2023-03-30T02:27:41.981Z,34.49
2023-03-30T02:30:08.969Z,34.56
2023-03-30T02:32:40.503Z,34.43
2023-03-30T02:35:15.977Z,34.58
2023-03-30T02:37:51.602Z,34.61
2023-03-30T02:40:24.280Z,34.63
2023-03-30T02:42:59.892Z,34.59
2023-03-30T02:45:44.318Z,34.58
2023-03-30T02:48:19.668Z,34.44
2023-03-30T02:51:04.658Z,34.39
2023-03-30T02:53:54.500Z,34.12
2023-03-30T02:56:24.725Z,34.39
2023-03-30T02:58:56.609Z,34.25
2023-03-30T03:01:33.950Z,34.38
2023-03-30T03:04:00.274Z,34.36
2023-03-30T03:06:26.628Z,34.43
2023-03-30T03:08:53.350Z,34.47
2023-03-30T03:11:19.674Z,34.34
2023-03-30T03:13:46.070Z,34.52
2023-03-30T03:16:12.880Z,34.44
2023-03-30T03:18:41.582Z,34.48
2023-03-30T03:21:11.251Z,34.28
2023-03-30T03:23:37.780Z,34.31
2023-03-30T03:26:04.238Z,34.41
2023-03-30T03:28:30.955Z,34.37
2023-03-30T03:30:58.656Z,34.22
2023-03-30T03:33:25.810Z,34.17
2023-03-30T03:35:55.049Z,34.46
2023-03-30T03:38:24.376Z,34.48
2023-03-30T03:40:51.341Z,34.54
2023-03-30T03:43:17.914Z,34.50
2023-03-30T03:45:47.215Z,34.33
2023-03-30T03:48:14.053Z,34.39
2023-03-30T03:50:40.386Z,34.12
2023-03-30T03:53:06.813Z,34.09
2023-03-30T03:55:35.266Z,34.07
2023-03-30T03:58:02.119Z,34.01
2023-03-30T04:00:29.250Z,34.10
2023-03-30T04:02:55.738Z,34.03
2023-03-30T04:05:22.092Z,34.09
2023-03-30T04:07:48.422Z,34.28
2023-03-30T04:10:14.875Z,34.23
2023-03-30T04:12:41.185Z,34.19
2023-03-30T04:15:07.803Z,34.16
2023-03-30T04:17:35.177Z,34.22
2023-03-30T04:20:02.760Z,34.33
2023-03-30T04:22:30.997Z,34.15
2023-03-30T04:24:57.335Z,34.23
2023-03-30T04:27:25.896Z,34.33
2023-03-30T04:29:52.241Z,34.24
2023-03-30T04:32:20.821Z,34.51
2023-03-30T04:34:47.407Z,34.36
2023-03-30T04:37:18.486Z,34.39
2023-03-30T04:39:45.141Z,34.37
2023-03-30T04:42:14.209Z,34.54
2023-03-30T04:44:40.944Z,34.38
2023-03-30T04:47:07.546Z,34.29
2023-03-30T04:49:33.863Z,34.29
2023-03-30T04:52:00.520Z,34.10
2023-03-30T04:54:27.468Z,33.96
2023-03-30T04:56:53.867Z,33.95
2023-03-30T04:59:20.238Z,33.74
2023-03-30T05:01:46.628Z,33.84
2023-03-30T05:04:14.189Z,33.85
2023-03-30T05:06:42.006Z,33.84
2023-03-30T05:09:08.350Z,33.95
2023-03-30T05:11:35.051Z,33.74
2023-03-30T05:14:01.364Z,33.87
2023-03-30T05:16:27.836Z,33.84
2023-03-30T05:18:54.196Z,33.90
2023-03-30T05:21:20.551Z,33.98
2023-03-30T05:23:46.865Z,34.16
2023-03-30T05:26:13.318Z,34.10
2023-03-30T05:28:40.261Z,34.11
2023-03-30T05:31:06.881Z,34.17
2023-03-30T05:33:33.805Z,34.15
2023-03-30T05:36:00.301Z,34.07
2023-03-30T05:38:26.671Z,34.25
2023-03-30T05:40:53.501Z,34.27
2023-03-30T05:43:19.837Z,34.15
2023-03-30T05:45:47.652Z,34.14
2023-03-30T05:48:14.148Z,34.18
2023-03-30T05:50:41.358Z,34.09
2023-03-30T05:53:07.901Z,34.07
2023-03-30T05:55:34.446Z,34.40
2023-03-30T05:58:00.762Z,34.32
2023-03-30T06:00:28.871Z,34.21
2023-03-30T06:02:55.328Z,34.36
2023-03-30T06:05:22.485Z,34.28
2023-03-30T06:07:49.633Z,33.82
2023-03-30T06:10:16.359Z,33.67
2023-03-30T06:12:42.754Z,33.99
2023-03-30T06:15:09.788Z,33.86
2023-03-30T06:17:36.993Z,33.70
2023-03-30T06:20:08.443Z,33.68
2023-03-30T06:22:35.086Z,33.99
2023-03-30T06:25:01.769Z,33.90
2023-03-30T06:27:31.837Z,33.72
2023-03-30T06:29:58.325Z,33.85
2023-03-30T06:32:24.898Z,33.75
2023-03-30T06:34:52.495Z,33.88
2023-03-30T06:37:19.443Z,33.70
2023-03-30T06:39:45.973Z,33.94
2023-03-30T06:42:14.340Z,34.05
2023-03-30T06:44:41.214Z,33.91
2023-03-30T06:47:07.640Z,33.87
2023-03-30T06:49:34.346Z,33.93
2023-03-30T06:52:04.358Z,33.96
2023-03-30T06:54:32.348Z,34.27
2023-03-30T06:56:58.720Z,34.02
2023-03-30T06:59:25.110Z,34.45
2023-03-30T07:01:51.658Z,34.79
2023-03-30T07:04:18.731Z,35.00
2023-03-30T07:06:45.225Z,34.68
2023-03-30T07:09:12.894Z,34.30
2023-03-30T07:11:39.224Z,34.10
2023-03-30T07:14:05.992Z,34.04
2023-03-30T07:16:32.721Z,34.00
2023-03-30T07:18:59.600Z,34.00
2023-03-30T07:21:26.395Z,33.91
2023-03-30T07:23:53.507Z,34.17
2023-03-30T07:26:19.917Z,34.01
2023-03-30T07:28:46.408Z,34.11
2023-03-30T07:31:13.828Z,34.03
2023-03-30T07:33:41.005Z,34.35
2023-03-30T07:36:10.768Z,34.29
2023-03-30T07:38:37.811Z,34.44
2023-03-30T07:41:08.318Z,34.80
2023-03-30T07:43:34.744Z,34.66
2023-03-30T07:46:01.540Z,34.86
2023-03-30T07:48:27.921Z,35.18
2023-03-30T07:51:04.335Z,35.21
2023-03-30T07:53:31.059Z,35.09
2023-03-30T07:55:57.373Z,35.06
2023-03-30T07:58:23.708Z,35.53
2023-03-30T08:00:50.610Z,35.56
2023-03-30T08:03:18.080Z,35.69
2023-03-30T08:05:46.154Z,35.47
2023-03-30T08:08:13.779Z,35.59
2023-03-30T08:10:40.110Z,35.60
2023-03-30T08:13:06.600Z,35.44
2023-03-30T08:15:33.243Z,35.64
2023-03-30T08:18:04.093Z,35.55
2023-03-30T08:20:31.150Z,35.39
2023-03-30T08:22:57.901Z,35.33
2023-03-30T08:25:24.274Z,35.33
2023-03-30T08:27:51.013Z,35.32
2023-03-30T08:30:18.884Z,35.23
2023-03-30T08:32:45.627Z,35.04
2023-03-30T08:35:12.284Z,35.20
2023-03-30T08:37:39.183Z,35.28
2023-03-30T08:40:11.965Z,35.15
2023-03-30T08:42:55.665Z,35.35
2023-03-30T08:45:22.291Z,35.25
2023-03-30T08:47:56.558Z,35.07
2023-03-30T08:50:28.594Z,35.25
2023-03-30T08:52:55.408Z,35.32
2023-03-30T08:55:24.179Z,35.02
2023-03-30T08:57:59.644Z,35.29
2023-03-30T09:00:35.092Z,35.30
2023-03-30T09:03:21.661Z,35.13
2023-03-30T09:05:49.514Z,35.20
2023-03-30T09:08:20.195Z,35.28
2023-03-30T09:10:48.016Z,35.17
2023-03-30T09:13:14.878Z,35.31
2023-03-30T09:16:04.281Z,35.25
2023-03-30T09:18:31.203Z,35.21
2023-03-30T09:20:58.564Z,35.21
2023-03-30T09:23:25.861Z,35.29
2023-03-30T09:26:03.092Z,35.24
2023-03-30T09:28:48.509Z,35.47
2023-03-30T09:31:16.071Z,35.07
2023-03-30T09:34:00.945Z,35.24
2023-03-30T09:36:31.374Z,35.64
2023-03-30T09:38:57.691Z,35.87
2023-03-30T09:41:44.474Z,35.53
2023-03-30T09:44:13.383Z,35.48
2023-03-30T09:46:40.361Z,36.96
2023-03-30T09:49:14.277Z,40.74
2023-03-30T09:51:52.338Z,42.04
2023-03-30T09:54:18.675Z,40.10
2023-03-30T09:56:47.863Z,39.89
2023-03-30T09:59:22.730Z,39.97
2023-03-30T10:01:50.582Z,39.88
2023-03-30T10:04:18.272Z,39.55
2023-03-30T10:06:47.465Z,39.14
2023-03-30T10:09:14.265Z,39.22
2023-03-30T10:11:46.271Z,38.97
2023-03-30T10:14:23.714Z,38.81
2023-03-30T10:16:50.327Z,38.68
2023-03-30T10:19:18.133Z,38.26
2023-03-30T10:21:47.126Z,38.39
2023-03-30T10:24:23.126Z,38.24
2023-03-30T10:26:53.703Z,38.15
2023-03-30T10:29:22.877Z,37.91
2023-03-30T10:31:53.608Z,38.07
2023-03-30T10:34:29.392Z,37.92
2023-03-30T10:36:56.512Z,37.92
2023-03-30T10:39:23.823Z,37.80
2023-03-30T10:41:50.825Z,37.84
2023-03-30T10:44:24.166Z,37.81
2023-03-30T10:46:55.388Z,37.55
2023-03-30T10:49:27.849Z,37.71
2023-03-30T10:52:06.099Z,37.59
2023-03-30T10:54:55.560Z,37.76
2023-03-30T10:57:24.856Z,37.67
2023-03-30T10:59:59.925Z,37.65
2023-03-30T11:02:35.791Z,37.64
2023-03-30T11:05:04.452Z,37.76
2023-03-30T11:07:33.574Z,37.54
2023-03-30T11:10:08.337Z,37.51
2023-03-30T11:12:36.929Z,37.43
2023-03-30T11:15:08.064Z,37.49
2023-03-30T11:17:36.306Z,37.50
2023-03-30T11:20:29.162Z,37.43
2023-03-30T11:23:04.261Z,37.38
2023-03-30T11:25:32.415Z,37.24
2023-03-30T11:28:29.642Z,37.13
2023-03-30T11:30:56.686Z,37.18
2023-03-30T11:33:27.107Z,37.27
2023-03-30T11:35:53.862Z,37.02
2023-03-30T11:38:35.312Z,37.04
2023-03-30T11:41:04.397Z,36.89
2023-03-30T11:43:30.674Z,36.96
2023-03-30T11:46:03.307Z,36.70
2023-03-30T11:48:38.228Z,36.69
2023-03-30T11:51:10.732Z,36.62
2023-03-30T11:53:49.242Z,36.77
2023-03-30T11:56:22.000Z,36.65
2023-03-30T11:58:51.783Z,36.44
2023-03-30T12:01:40.727Z,36.75
2023-03-30T12:04:11.366Z,36.66
2023-03-30T12:06:41.839Z,36.56
2023-03-30T12:09:20.331Z,36.65
2023-03-30T12:11:51.170Z,36.38
2023-03-30T12:14:32.916Z,36.48
2023-03-30T12:16:59.924Z,36.23
2023-03-30T12:19:28.201Z,36.79
2023-03-30T12:22:10.892Z,36.80
2023-03-30T12:24:56.204Z,36.85
2023-03-30T12:27:22.640Z,36.66
2023-03-30T12:32:22.454Z,36.73
2023-03-30T12:34:48.899Z,36.74
2023-03-30T12:37:34.609Z,36.38
2023-03-30T12:40:06.711Z,36.52
2023-03-30T12:42:36.472Z,36.61
2023-03-30T12:45:16.560Z,36.84
2023-03-30T12:48:03.034Z,36.63
2023-03-30T12:50:29.509Z,36.77
2023-03-30T12:53:11.597Z,36.38
2023-03-30T12:55:43.736Z,36.53
2023-03-30T12:58:22.090Z,36.69
2023-03-30T13:00:51.708Z,36.42
2023-03-30T13:03:18.342Z,36.31
2023-03-30T13:05:44.912Z,36.33
2023-03-30T13:08:19.337Z,36.33
2023-03-30T13:10:45.669Z,36.21
2023-03-30T13:13:22.802Z,36.27
2023-03-30T13:15:50.315Z,36.12
2023-03-30T13:18:16.552Z,36.13
2023-03-30T13:20:42.833Z,36.28
2023-03-30T13:23:09.068Z,36.26
2023-03-30T13:25:41.330Z,36.25
2023-03-30T13:28:26.551Z,36.09
2023-03-30T13:30:52.918Z,36.27
2023-03-30T13:33:19.266Z,36.11
2023-03-30T13:35:46.094Z,36.09
2023-03-30T13:38:30.212Z,36.21
2023-03-30T13:41:05.085Z,36.06
2023-03-30T13:43:39.290Z,36.00
2023-03-30T13:46:38.018Z,36.08
2023-03-30T13:49:07.898Z,36.20
2023-03-30T13:51:34.262Z,36.27
2023-03-30T13:54:05.277Z,36.03
2023-03-30T13:56:32.373Z,36.06
2023-03-30T13:59:06.440Z,36.09
2023-03-30T14:01:32.911Z,36.27
2023-03-30T14:04:00.722Z,36.15
2023-03-30T14:06:27.824Z,35.95
2023-03-30T14:09:06.272Z,36.28
2023-03-30T14:11:39.691Z,36.17
2023-03-30T14:14:06.569Z,36.28
2023-03-30T14:16:34.123Z,36.22
2023-03-30T14:19:08.344Z,36.00
2023-03-30T14:21:34.735Z,36.19
2023-03-30T14:24:01.264Z,35.97
2023-03-30T14:26:28.094Z,36.04
2023-03-30T14:28:55.563Z,36.01
2023-03-30T14:31:22.177Z,36.16
2023-03-30T14:33:48.659Z,35.94
2023-03-30T14:36:16.126Z,36.00
2023-03-30T14:38:43.519Z,35.82
2023-03-30T14:41:23.819Z,36.07
2023-03-30T14:43:54.787Z,35.91
2023-03-30T14:46:21.206Z,36.14
2023-03-30T14:48:49.312Z,36.20
2023-03-30T14:51:23.554Z,35.98
2023-03-30T14:53:50.791Z,36.00
2023-03-30T14:56:17.315Z,36.10
2023-03-30T14:58:43.625Z,36.24
2023-03-30T15:01:10.654Z,36.06
2023-03-30T15:03:37.232Z,36.28
2023-03-30T15:06:04.056Z,36.21
2023-03-30T15:08:31.273Z,36.09
2023-03-30T15:10:58.523Z,36.28
2023-03-30T15:13:26.382Z,36.11
2023-03-30T15:15:54.236Z,36.22
2023-03-30T15:18:21.754Z,36.28
2023-03-30T15:20:48.068Z,36.36
2023-03-30T15:23:14.408Z,36.37
2023-03-30T15:25:40.757Z,36.73
2023-03-30T15:28:07.806Z,36.75
2023-03-30T15:30:46.380Z,36.80
2023-03-30T15:33:24.867Z,36.80
2023-03-30T15:35:52.211Z,36.37
2023-03-30T15:38:18.878Z,36.64
2023-03-30T15:40:50.004Z,36.72
2023-03-30T15:43:26.817Z,36.67
2023-03-30T15:45:55.973Z,36.78
2023-03-30T15:48:26.066Z,36.61
2023-03-30T15:51:16.185Z,36.69
2023-03-30T15:54:02.774Z,36.69
2023-03-30T15:56:34.132Z,36.89
2023-03-30T15:59:01.514Z,37.14
2023-03-30T16:01:28.259Z,36.81
2023-03-30T16:03:55.338Z,37.10
2023-03-30T16:06:21.752Z,36.90
2023-03-30T16:08:48.285Z,37.29
2023-03-30T16:11:16.131Z,36.92
2023-03-30T16:13:42.893Z,37.04
2023-03-30T16:16:10.890Z,36.95
2023-03-30T16:18:37.357Z,36.94
2023-03-30T16:21:05.281Z,36.90
2023-03-30T16:23:31.797Z,37.01
2023-03-30T16:25:58.309Z,37.01
2023-03-30T16:28:24.623Z,37.00
2023-03-30T16:30:51.886Z,37.01
2023-03-30T16:33:18.293Z,36.79
2023-03-30T16:35:44.711Z,36.91
2023-03-30T16:38:12.435Z,36.95
2023-03-30T16:40:40.893Z,36.90
2023-03-30T16:43:09.139Z,36.79
2023-03-30T16:45:35.541Z,36.90
2023-03-30T16:48:01.960Z,36.80
2023-03-30T16:50:41.220Z,36.86
2023-03-30T16:53:08.737Z,36.71
2023-03-30T16:55:35.250Z,36.69
2023-03-30T16:58:01.569Z,36.87
2023-03-30T17:00:31.425Z,36.62
2023-03-30T17:02:57.826Z,36.71
2023-03-30T17:05:24.437Z,36.63
2023-03-30T17:07:54.334Z,36.67
2023-03-30T17:10:24.868Z,36.72
2023-03-30T17:12:52.153Z,36.69
2023-03-30T17:15:18.535Z,36.82
2023-03-30T17:17:44.935Z,36.74
2023-03-30T17:20:18.440Z,36.69
2023-03-30T17:22:44.757Z,36.66
2023-03-30T17:25:11.118Z,36.72
2023-03-30T17:27:37.940Z,36.69
2023-03-30T17:30:05.314Z,36.77
2023-03-30T17:32:31.679Z,36.60
2023-03-30T17:34:58.053Z,36.64
2023-03-30T17:37:24.366Z,36.81
2023-03-30T17:39:50.899Z,36.74
2023-03-30T17:42:17.243Z,36.56
2023-03-30T17:44:43.577Z,36.59
2023-03-30T17:47:09.882Z,36.75
2023-03-30T17:49:36.859Z,36.57
2023-03-30T17:52:03.226Z,36.93
2023-03-30T17:54:30.655Z,36.79
2023-03-30T17:56:57.263Z,36.93
2023-03-30T17:59:23.645Z,36.72
2023-03-30T18:01:49.968Z,36.81
2023-03-30T18:04:16.347Z,37.19
2023-03-30T18:06:42.962Z,36.94
2023-03-30T18:09:14.278Z,36.90
2023-03-30T18:11:40.801Z,36.80
2023-03-30T18:14:08.191Z,36.45
2023-03-30T18:16:37.375Z,36.30
2023-03-30T18:19:03.779Z,36.24
2023-03-30T18:21:30.232Z,36.14
2023-03-30T18:23:56.964Z,36.06
2023-03-30T18:26:23.329Z,35.73
2023-03-30T18:28:49.648Z,35.59
2023-03-30T18:31:16.381Z,35.58
2023-03-30T18:33:42.707Z,35.71
2023-03-30T18:36:12.915Z,35.68
2023-03-30T18:38:39.656Z,35.55
2023-03-30T18:41:06.550Z,35.43
2023-03-30T18:43:33.477Z,35.31
2023-03-30T18:46:02.128Z,35.40
2023-03-30T18:48:28.896Z,35.33
2023-03-30T18:50:55.306Z,35.47
2023-03-30T18:53:25.340Z,35.33
2023-03-30T18:55:52.750Z,35.24
2023-03-30T18:58:22.994Z,35.12
2023-03-30T19:00:49.557Z,35.25
2023-03-30T19:03:16.927Z,35.32
2023-03-30T19:05:43.386Z,35.00
2023-03-30T19:08:13.494Z,35.17
2023-03-30T19:10:40.305Z,35.08
2023-03-30T19:13:07.017Z,35.32
2023-03-30T19:15:36.365Z,35.31
2023-03-30T19:18:03.050Z,35.40
2023-03-30T19:20:29.715Z,35.24
2023-03-30T19:22:56.390Z,35.53
2023-03-30T19:25:22.982Z,35.32
2023-03-30T19:28:01.714Z,35.53
2023-03-30T19:30:29.627Z,35.22
2023-03-30T19:32:57.267Z,35.38
2023-03-30T19:35:23.960Z,35.07
2023-03-30T19:37:50.314Z,35.12
2023-03-30T19:40:16.771Z,35.05
2023-03-30T19:42:43.597Z,35.37
2023-03-30T19:45:09.905Z,35.36
2023-03-30T19:47:36.321Z,35.46
2023-03-30T19:50:04.658Z,35.42
2023-03-30T19:52:30.990Z,35.45
2023-03-30T19:54:57.300Z,35.27
2023-03-30T19:57:23.649Z,35.09
2023-03-30T19:59:50.214Z,35.14
2023-03-30T20:02:16.902Z,35.13
2023-03-30T20:04:44.482Z,35.44
2023-03-30T20:07:11.962Z,35.40
2023-03-30T20:09:38.383Z,35.22
2023-03-30T20:12:04.890Z,35.20
2023-03-30T20:14:31.448Z,35.28
2023-03-30T20:16:58.322Z,35.51
2023-03-30T20:19:29.377Z,35.25
2023-03-30T20:21:56.639Z,35.36
2023-03-30T20:24:23.118Z,35.25
2023-03-30T20:26:49.678Z,35.43
2023-03-30T20:29:15.987Z,35.46
2023-03-30T20:31:42.451Z,35.32
2023-03-30T20:34:11.335Z,35.37
2023-03-30T20:36:37.665Z,35.55
2023-03-30T20:39:05.807Z,35.62
2023-03-30T20:41:38.284Z,35.57
2023-03-30T20:44:11.020Z,36.09
2023-03-30T20:46:37.867Z,35.76
2023-03-30T20:49:04.763Z,35.89
2023-03-30T20:51:31.220Z,35.97
2023-03-30T20:53:57.636Z,35.99
2023-03-30T20:56:24.004Z,35.54
2023-03-30T20:58:50.319Z,35.76
2023-03-30T21:01:17.804Z,35.56
2023-03-30T21:03:44.778Z,35.74
2023-03-30T21:06:12.307Z,35.77
2023-03-30T21:08:38.611Z,35.72
2023-03-30T21:11:05.195Z,35.88
2023-03-30T21:13:31.689Z,35.88
2023-03-30T21:15:58.418Z,35.86
2023-03-30T21:18:24.942Z,35.98
2023-03-30T21:20:51.387Z,36.03
2023-03-30T21:23:17.721Z,35.88
2023-03-30T21:25:44.423Z,36.00
2023-03-30T21:28:12.128Z,35.89
2023-03-30T21:30:38.671Z,35.91
2023-03-30T21:33:05.089Z,36.16
2023-03-30T21:35:31.927Z,35.74
2023-03-30T21:37:58.300Z,36.16
2023-03-30T21:40:24.614Z,36.15
2023-03-30T21:42:50.962Z,36.02
2023-03-30T21:45:17.783Z,35.80
2023-03-30T21:47:44.263Z,35.94
2023-03-30T21:50:11.009Z,35.86
2023-03-30T21:52:37.323Z,36.13
2023-03-30T21:55:03.714Z,35.92
2023-03-30T21:57:30.328Z,35.93
2023-03-30T21:59:56.708Z,35.92
2023-03-30T22:02:23.271Z,36.03
2023-03-30T22:04:49.689Z,35.78
2023-03-30T22:07:16.283Z,36.19
2023-03-30T22:09:42.594Z,36.15
2023-03-30T22:12:08.933Z,35.90
2023-03-30T22:14:35.475Z,35.98
2023-03-30T22:17:01.857Z,36.15
2023-03-30T22:19:32.100Z,35.86
2023-03-30T22:21:58.469Z,35.83
2023-03-30T22:24:24.971Z,35.39
2023-03-30T22:26:52.282Z,35.61
2023-03-30T22:29:20.766Z,35.56
2023-03-30T22:31:47.250Z,35.34
2023-03-30T22:34:13.632Z,35.45
2023-03-30T22:36:40.656Z,35.51
2023-03-30T22:39:06.995Z,35.37
2023-03-30T22:41:33.303Z,35.15
2023-03-30T22:43:59.762Z,35.21
2023-03-30T22:46:26.338Z,35.14
2023-03-30T22:48:55.883Z,35.17
2023-03-30T22:51:28.407Z,35.48
2023-03-30T22:53:58.509Z,35.26
2023-03-30T22:56:25.715Z,35.18
2023-03-30T22:58:52.362Z,35.22
2023-03-30T23:01:19.474Z,35.11
2023-03-30T23:03:47.519Z,35.35
2023-03-30T23:06:14.106Z,35.41
2023-03-30T23:08:40.441Z,35.06
2023-03-30T23:11:08.106Z,35.24
2023-03-30T23:13:37.082Z,35.29
2023-03-30T23:16:04.088Z,35.03
2023-03-30T23:18:30.570Z,35.29
2023-03-30T23:20:58.145Z,35.06
2023-03-30T23:23:24.484Z,35.12
2023-03-30T23:25:51.203Z,35.21
2023-03-30T23:28:17.726Z,35.30
2023-03-30T23:30:46.792Z,35.08
2023-03-30T23:33:13.436Z,35.26
2023-03-30T23:35:41.150Z,35.12
2023-03-30T23:38:10.040Z,35.41
2023-03-30T23:40:36.750Z,35.16
2023-03-30T23:43:03.070Z,35.06
2023-03-30T23:45:29.404Z,35.27
2023-03-30T23:47:55.771Z,35.32
2023-03-30T23:50:22.599Z,35.23
2023-03-30T23:52:48.943Z,35.29
2023-03-30T23:55:15.629Z,35.14
2023-03-30T23:57:41.974Z,35.26
